Terminal Aerodrome Forecast
Issued by NWS Quad Cities IA IL

Home | Current Version | Previous Version | Text Only | Print | Product List | Glossary On
Versions: 1 2 3 4 5 6 7 8 9 10 11 12 13 14 15 16 17 18
000
FTUS43 KDVN 202300
TAFMLI
TAF
KMLI 202339Z 2100/2124 14004KT 5SM -DZ HZ OVC012
      TEMPO 2102/2104 2SM -FZDZ BR OVC007
     FM210400 17006KT 3SM -DZ BR OVC007
     FM211500 16011KT 5SM BR OVC015=

USA.gov is the U.S. government's official web portal to all federal, state and local government web resources and services.